createdAt,value
2023-05-02T00:03:54.511Z,4.09
2023-05-02T00:08:54.431Z,4.40
2023-05-02T00:13:54.349Z,4.00
2023-05-02T00:18:54.267Z,3.79
2023-05-02T00:23:54.215Z,3.90
2023-05-02T00:28:54.136Z,4.00
2023-05-02T00:33:54.074Z,3.40
2023-05-02T00:38:54.009Z,4.00
2023-05-02T00:43:53.945Z,3.70
2023-05-02T00:48:53.881Z,3.59
2023-05-02T00:53:53.993Z,3.59
2023-05-02T00:58:53.764Z,3.59
2023-05-02T01:03:53.856Z,3.70
2023-05-02T01:08:53.612Z,3.40
2023-05-02T01:13:53.551Z,3.70
2023-05-02T01:18:53.479Z,4.09
2023-05-02T01:23:53.432Z,3.90
2023-05-02T01:28:53.346Z,3.70
2023-05-02T01:33:53.289Z,3.59
2023-05-02T01:38:53.222Z,3.50
2023-05-02T01:43:53.154Z,3.40
2023-05-02T01:48:53.117Z,3.79
2023-05-02T01:53:53.033Z,3.59
2023-05-02T01:58:52.980Z,3.40
2023-05-02T02:03:52.992Z,3.29
2023-05-02T02:08:52.947Z,3.29
2023-05-02T02:13:52.771Z,3.09
2023-05-02T02:18:52.711Z,3.40
2023-05-02T02:23:52.631Z,3.40
2023-05-02T02:28:52.574Z,3.29
2023-05-02T02:33:52.502Z,3.40
2023-05-02T02:38:52.452Z,3.59
2023-05-02T02:43:52.375Z,3.40
2023-05-02T02:48:52.316Z,3.50
2023-05-02T02:53:52.250Z,3.50
2023-05-02T02:58:52.182Z,3.09
2023-05-02T03:03:52.164Z,3.29
2023-05-02T03:08:52.032Z,3.79
2023-05-02T03:13:51.984Z,3.79
2023-05-02T03:18:51.899Z,3.40
2023-05-02T03:23:51.867Z,3.59
2023-05-02T03:28:51.777Z,3.59
2023-05-02T03:33:51.719Z,3.40
2023-05-02T03:38:51.646Z,3.09
2023-05-02T03:43:51.605Z,4.00
2023-05-02T03:48:51.518Z,3.59
2023-05-02T03:53:51.466Z,3.90
2023-05-02T03:58:51.385Z,3.90
2023-05-02T04:03:51.378Z,3.40
2023-05-02T04:08:51.264Z,4.00
2023-05-02T04:13:52.668Z,4.00
2023-05-02T04:18:51.124Z,3.59
2023-05-02T04:23:51.064Z,3.90
2023-05-02T04:28:51.000Z,3.50
2023-05-02T04:33:50.940Z,3.59
2023-05-02T04:38:50.864Z,3.70
2023-05-02T04:43:50.802Z,3.29
2023-05-02T04:48:50.735Z,3.79
2023-05-02T04:53:50.667Z,3.59
2023-05-02T04:58:50.606Z,3.70
2023-05-02T05:03:50.632Z,3.90
2023-05-02T05:08:50.462Z,3.90
2023-05-02T05:13:50.406Z,6.69
2023-05-02T05:18:50.337Z,4.09
2023-05-02T05:23:50.281Z,3.90
2023-05-02T05:28:50.213Z,3.90
2023-05-02T05:33:50.168Z,3.79
2023-05-02T05:38:50.070Z,4.09
2023-05-02T05:43:50.014Z,4.59
2023-05-02T05:48:49.952Z,4.30
2023-05-02T05:53:49.942Z,4.19
2023-05-02T05:58:49.838Z,4.00
2023-05-02T06:03:49.834Z,3.40
2023-05-02T06:08:49.688Z,4.40
2023-05-02T06:13:49.624Z,10.10
2023-05-02T06:18:49.556Z,5.09
2023-05-02T06:23:49.492Z,4.00
2023-05-02T06:28:49.419Z,4.30
2023-05-02T06:33:49.363Z,3.70
2023-05-02T06:38:49.279Z,7.59
2023-05-02T06:43:49.234Z,4.50
2023-05-02T06:48:49.153Z,3.90
2023-05-02T06:53:49.101Z,3.70
2023-05-02T06:58:49.013Z,4.19
2023-05-02T07:03:49.035Z,7.59
2023-05-02T07:08:48.880Z,5.19
2023-05-02T07:13:48.824Z,3.79
2023-05-02T07:18:48.779Z,3.40
2023-05-02T07:23:48.702Z,4.30
2023-05-02T07:28:48.619Z,4.19
2023-05-02T07:33:48.567Z,3.59
2023-05-02T07:38:48.494Z,3.70
2023-05-02T07:43:48.442Z,3.20
2023-05-02T07:48:48.376Z,3.70
2023-05-02T07:53:48.311Z,3.20
2023-05-02T07:58:48.250Z,3.40
2023-05-02T08:03:48.314Z,3.50
2023-05-02T08:08:48.119Z,4.09
2023-05-02T08:13:48.055Z,4.19
2023-05-02T08:18:47.993Z,3.70
2023-05-02T08:23:47.931Z,3.50
2023-05-02T08:28:47.858Z,3.50
2023-05-02T08:33:47.808Z,3.90
2023-05-02T08:38:47.723Z,3.29
2023-05-02T08:43:47.681Z,3.70
2023-05-02T08:48:47.594Z,3.50
2023-05-02T08:53:47.550Z,5.09
2023-05-02T08:58:47.463Z,5.80
2023-05-02T09:03:47.490Z,5.80
2023-05-02T09:08:47.616Z,6.90
2023-05-02T09:13:47.261Z,6.40
2023-05-02T09:18:47.208Z,7.19
2023-05-02T09:23:47.183Z,10.69
2023-05-02T09:28:47.063Z,8.80
2023-05-02T09:33:47.000Z,7.09
2023-05-02T09:38:46.941Z,6.30
2023-05-02T09:43:46.869Z,7.30
2023-05-02T09:48:46.792Z,7.69
2023-05-02T09:53:46.743Z,6.50
2023-05-02T09:58:46.655Z,6.50
2023-05-02T10:03:46.669Z,6.69
2023-05-02T10:08:46.527Z,5.59
2023-05-02T10:13:46.477Z,6.09
2023-05-02T10:18:46.393Z,6.00
2023-05-02T10:23:46.335Z,5.00
2023-05-02T10:28:46.259Z,5.40
2023-05-02T10:33:46.205Z,5.50
2023-05-02T10:38:46.134Z,5.40
2023-05-02T10:43:46.071Z,4.59
2023-05-02T10:48:45.998Z,5.19
2023-05-02T10:53:45.940Z,6.00
2023-05-02T10:58:45.867Z,5.30
2023-05-02T11:03:45.815Z,5.40
2023-05-02T11:08:45.735Z,4.80
2023-05-02T11:13:45.687Z,4.30
2023-05-02T11:18:45.603Z,4.90
2023-05-02T11:23:45.555Z,4.90
2023-05-02T11:28:45.485Z,5.09
2023-05-02T11:33:45.426Z,5.00
2023-05-02T11:38:45.351Z,2.40
2023-05-02T11:43:45.284Z,1.39
2023-05-02T11:48:45.211Z,1.39
2023-05-02T11:53:45.156Z,1.00
2023-05-02T11:58:45.079Z,1.00
2023-05-02T12:03:45.222Z,1.39
2023-05-02T12:08:44.977Z,1.29
2023-05-02T12:13:44.899Z,2.50
2023-05-02T12:18:44.824Z,3.09
2023-05-02T12:23:44.792Z,3.00
2023-05-02T12:28:44.694Z,2.00
2023-05-02T12:33:44.643Z,1.60
2023-05-02T12:38:44.558Z,1.79
2023-05-02T12:43:44.512Z,1.39
2023-05-02T12:48:45.019Z,1.70
2023-05-02T12:53:44.402Z,1.70
2023-05-02T12:58:44.300Z,1.50
2023-05-02T13:03:44.305Z,2.00
2023-05-02T13:08:44.176Z,2.09
2023-05-02T13:13:44.097Z,2.59
2023-05-02T13:18:45.576Z,3.09
2023-05-02T13:23:43.999Z,3.40
2023-05-02T13:28:44.489Z,5.30
2023-05-02T13:33:43.831Z,4.09
2023-05-02T13:38:43.761Z,3.70
2023-05-02T13:43:43.706Z,4.09
2023-05-02T13:48:43.631Z,4.80
2023-05-02T13:53:43.579Z,4.19
2023-05-02T13:58:43.508Z,4.40
2023-05-02T14:03:43.500Z,4.00
2023-05-02T14:08:43.365Z,3.50
2023-05-02T14:13:43.319Z,4.59
2023-05-02T14:18:43.229Z,4.59
2023-05-02T14:23:43.174Z,4.09
2023-05-02T14:28:43.111Z,4.19
2023-05-02T14:33:43.084Z,4.50
2023-05-02T14:38:42.972Z,4.09
2023-05-02T14:43:42.933Z,4.90
2023-05-02T14:48:42.840Z,4.30
2023-05-02T14:53:42.782Z,4.19
2023-05-02T14:58:42.709Z,3.90
2023-05-02T15:04:00.887Z,3.59
2023-05-02T15:08:43.600Z,3.50
2023-05-02T15:13:42.515Z,3.50
2023-05-02T15:18:42.437Z,3.79
2023-05-02T15:23:42.380Z,3.29
2023-05-02T15:28:42.299Z,3.50
2023-05-02T15:33:42.248Z,3.40
2023-05-02T15:38:42.188Z,3.50
2023-05-02T15:43:42.111Z,3.50
2023-05-02T15:48:42.065Z,3.70
2023-05-02T15:53:41.973Z,4.09
2023-05-02T15:58:41.909Z,3.59
2023-05-02T16:03:41.919Z,4.19
2023-05-02T16:08:41.845Z,3.90
2023-05-02T16:13:41.718Z,3.59
2023-05-02T16:18:41.657Z,3.09
2023-05-02T16:23:41.582Z,3.20
2023-05-02T16:28:41.509Z,3.00
2023-05-02T16:33:41.451Z,4.09
2023-05-02T16:38:41.388Z,3.90
2023-05-02T16:43:41.325Z,3.40
2023-05-02T16:48:41.255Z,3.00
2023-05-02T16:53:41.199Z,2.59
2023-05-02T16:58:41.141Z,2.79
2023-05-02T17:03:41.147Z,2.90
2023-05-02T17:08:41.005Z,2.90
2023-05-02T17:13:40.938Z,3.09
2023-05-02T17:18:40.873Z,2.50
2023-05-02T17:23:40.801Z,2.20
2023-05-02T17:28:40.740Z,2.29
2023-05-02T17:33:40.671Z,2.50
2023-05-02T17:38:40.608Z,2.29
2023-05-02T17:43:40.540Z,2.70
2023-05-02T17:48:40.477Z,3.00
2023-05-02T17:53:40.425Z,2.59
2023-05-02T17:58:40.347Z,2.50
2023-05-02T18:03:40.334Z,2.50
2023-05-02T18:08:40.213Z,3.29
2023-05-02T18:13:40.148Z,2.90
2023-05-02T18:18:40.086Z,2.70
2023-05-02T18:23:40.056Z,2.59
2023-05-02T18:28:40.721Z,2.70
2023-05-02T18:33:39.883Z,2.90
2023-05-02T18:38:39.810Z,2.59
2023-05-02T18:43:39.754Z,2.50
2023-05-02T18:48:39.690Z,2.50
2023-05-02T18:53:39.628Z,2.59
2023-05-02T18:58:39.544Z,3.20
2023-05-02T19:03:39.680Z,2.70
2023-05-02T19:08:39.477Z,2.29
2023-05-02T19:13:39.366Z,2.40
2023-05-02T19:18:39.298Z,3.20
2023-05-02T19:23:39.227Z,2.70
2023-05-02T19:28:39.163Z,2.59
2023-05-02T19:33:39.106Z,2.59
2023-05-02T19:38:39.033Z,2.70
2023-05-02T19:43:38.966Z,2.50
2023-05-02T19:48:38.902Z,2.20
2023-05-02T19:53:38.862Z,2.59
2023-05-02T19:58:38.776Z,2.09
2023-05-02T20:03:38.914Z,2.79
2023-05-02T20:08:38.644Z,2.70
2023-05-02T20:13:38.579Z,2.40
2023-05-02T20:18:38.499Z,2.70
2023-05-02T20:23:38.435Z,2.40
2023-05-02T20:28:38.369Z,2.79
2023-05-02T20:33:45.286Z,2.79
2023-05-02T20:38:38.233Z,5.09
2023-05-02T20:43:38.178Z,8.60
2023-05-02T20:48:38.108Z,2.79
2023-05-02T20:53:38.091Z,1.90
2023-05-02T20:58:37.983Z,2.29
2023-05-02T21:03:37.939Z,1.79
2023-05-02T21:08:37.851Z,2.20
2023-05-02T21:13:37.801Z,1.60
2023-05-02T21:18:37.711Z,1.50
2023-05-02T21:23:37.674Z,1.70
2023-05-02T21:28:37.580Z,2.00
2023-05-02T21:33:37.528Z,1.90
2023-05-02T21:38:37.457Z,1.60
2023-05-02T21:43:37.388Z,1.20
2023-05-02T21:48:37.310Z,1.39
2023-05-02T21:53:37.256Z,1.20
2023-05-02T21:58:37.188Z,1.29
2023-05-02T22:03:37.201Z,1.29
2023-05-02T22:08:37.047Z,1.20
2023-05-02T22:13:37.056Z,1.20
2023-05-02T22:18:36.937Z,1.29
2023-05-02T22:23:36.875Z,2.09
2023-05-02T22:28:36.788Z,1.29
2023-05-02T22:33:36.754Z,1.50
2023-05-02T22:38:36.653Z,1.20
2023-05-02T22:43:36.605Z,1.10
2023-05-02T22:48:36.537Z,1.20
2023-05-02T22:53:36.471Z,1.29
2023-05-02T22:58:36.391Z,1.20
2023-05-02T23:03:36.473Z,1.00
2023-05-02T23:08:36.265Z,1.20
2023-05-02T23:13:36.195Z,1.50
2023-05-02T23:18:36.137Z,1.70
2023-05-02T23:23:36.069Z,1.29
2023-05-02T23:28:36.012Z,1.20
2023-05-02T23:33:35.936Z,1.60
2023-05-02T23:38:35.869Z,1.60
2023-05-02T23:43:35.797Z,1.70
2023-05-02T23:48:35.748Z,1.60
2023-05-02T23:53:35.821Z,1.70
2023-05-02T23:58:35.624Z,1.50
